^^
Station Historical Data
Daily Summary for April 22, 2017 Units:  Both    English   Metric
« Previous Day
Next Day »
Daily Weekly Monthly Yearly Custom
  High: Low: Average:
Temperature: 69.8 °F /  21 °C 50.5 °F /  10.3 °C 58.1 °F /  14.5 °C
Dew Point: 51.8 °F /  11 °C 45.5 °F /  7.5 °C 48.6 °F /  9.2 °C
Humidity: 88% 49% 72%
Wind Speed: 19.0mph /  30.6km/h - 2.7mph /  4.3km/h
Wind Gust: 19.0mph /  30.6km/h - -
Wind- - ESE
Pressure: 30.01 in /  1016.1 hPa 29.91 in /  1012.8 hPa -
Precipitation: 0.00 in /  0 mm    
Historical Graphs
 
 
Tabular Data for April 22, 2017
Time Temperature Dew Point Pressure Wind Wind Speed Wind Gust Humidity Rainfall Rate (Hourly) solar Conditions
00:03 54.3 °F /  12.4 °C 45.5 °F /  7.5 °C 29.98in /  1015.1hPa SSE 4.9mph /  7.9km/h 16.0mph /  25.7km/h 72% 0.00in /  0mm 0.0 W/m2
00:09 54.7 °F /  12.6 °C 45.9 °F /  7.7 °C 29.98in /  1015.1hPa ESE 6.0mph /  9.7km/h 10.0mph /  16.1km/h 72% 0.00in /  0mm 0.0 W/m2
00:15 54.7 °F /  12.6 °C 45.9 °F /  7.7 °C 29.98in /  1015.1hPa ESE 2.9mph /  4.7km/h 11.0mph /  17.7km/h 72% 0.00in /  0mm 0.0 W/m2
00:23 54.7 °F /  12.6 °C 45.9 °F /  7.7 °C 29.97in /  1014.8hPa SE 8.1mph /  13km/h 10.0mph /  16.1km/h 72% 0.00in /  0mm 0.0 W/m2
00:29 54.7 °F /  12.6 °C 45.9 °F /  7.7 °C 29.97in /  1014.8hPa ESE 2.0mph /  3.2km/h 12.0mph /  19.3km/h 72% 0.00in /  0mm 0.0 W/m2
00:35 54.7 °F /  12.6 °C 46.2 °F /  7.9 °C 29.97in /  1014.8hPa ESE 0.9mph /  1.4km/h 8.0mph /  12.9km/h 73% 0.00in /  0mm 0.0 W/m2
00:41 54.5 °F /  12.5 °C 46.4 °F /  8 °C 29.97in /  1014.8hPa NE 6.0mph /  9.7km/h 9.0mph /  14.5km/h 74% 0.00in /  0mm 0.0 W/m2
00:47 54.3 °F /  12.4 °C 46.2 °F /  7.9 °C 29.96in /  1014.4hPa ESE 2.9mph /  4.7km/h 7.0mph /  11.3km/h 74% 0.00in /  0mm 0.0 W/m2
00:54 54.3 °F /  12.4 °C 45.9 °F /  7.7 °C 29.96in /  1014.4hPa SE 4.9mph /  7.9km/h 8.0mph /  12.9km/h 73% 0.00in /  0mm 0.0 W/m2
01:00 54.5 °F /  12.5 °C 46.4 °F /  8 °C 29.96in /  1014.4hPa SSE 2.0mph /  3.2km/h 7.0mph /  11.3km/h 74% 0.00in /  0mm 0.0 W/m2
01:06 54.9 °F /  12.7 °C 46.8 °F /  8.2 °C 29.96in /  1014.4hPa ESE 0.9mph /  1.4km/h 8.0mph /  12.9km/h 74% 0.00in /  0mm 0.0 W/m2
01:12 55.2 °F /  12.9 °C 47.1 °F /  8.4 °C 29.96in /  1014.4hPa East 2.0mph /  3.2km/h 9.0mph /  14.5km/h 74% 0.00in /  0mm 0.0 W/m2
01:18 55.4 °F /  13 °C 47.7 °F /  8.7 °C 29.96in /  1014.4hPa North 4.9mph /  7.9km/h 13.0mph /  20.9km/h 75% 0.00in /  0mm 0.0 W/m2
01:24 55.2 °F /  12.9 °C 47.5 °F /  8.6 °C 29.96in /  1014.4hPa NNW 2.0mph /  3.2km/h 7.0mph /  11.3km/h 75% 0.00in /  0mm 0.0 W/m2
01:30 55.2 °F /  12.9 °C 47.8 °F /  8.8 °C 29.96in /  1014.4hPa SE 19.0mph /  30.6km/h 19.0mph /  30.6km/h 76% 0.00in /  0mm 0.0 W/m2
01:36 55.2 °F /  12.9 °C 48.2 °F /  9 °C 29.96in /  1014.4hPa North 4.0mph /  6.4km/h 15.0mph /  24.1km/h 77% 0.00in /  0mm 0.0 W/m2
01:43 55.2 °F /  12.9 °C 48.2 °F /  9 °C 29.96in /  1014.4hPa ENE 0.9mph /  1.4km/h 15.0mph /  24.1km/h 77% 0.00in /  0mm 0.0 W/m2
01:48 55.2 °F /  12.9 °C 48.6 °F /  9.2 °C 29.96in /  1014.4hPa WNW 6.9mph /  11.1km/h 9.0mph /  14.5km/h 78% 0.00in /  0mm 0.0 W/m2
01:55 55.0 °F /  12.8 °C 48.4 °F /  9.1 °C 29.96in /  1014.4hPa SE 2.0mph /  3.2km/h 9.0mph /  14.5km/h 78% 0.00in /  0mm 0.0 W/m2
02:01 55.0 °F /  12.8 °C 48.6 °F /  9.2 °C 29.96in /  1014.4hPa SE 6.9mph /  11.1km/h 13.0mph /  20.9km/h 79% 0.00in /  0mm 0.0 W/m2
02:07 54.9 °F /  12.7 °C 48.6 °F /  9.2 °C 29.96in /  1014.4hPa ENE 4.0mph /  6.4km/h 13.0mph /  20.9km/h 79% 0.00in /  0mm 0.0 W/m2
02:13 54.9 °F /  12.7 °C 48.7 °F /  9.3 °C 29.95in /  1014.1hPa ENE 4.9mph /  7.9km/h 6.0mph /  9.7km/h 80% 0.00in /  0mm 0.0 W/m2
02:19 54.7 °F /  12.6 °C 48.9 °F /  9.4 °C 29.95in /  1014.1hPa North 4.0mph /  6.4km/h 13.0mph /  20.9km/h 81% 0.00in /  0mm 0.0 W/m2
02:25 54.5 °F /  12.5 °C 49.1 °F /  9.5 °C 29.95in /  1014.1hPa NE 2.0mph /  3.2km/h 4.0mph /  6.4km/h 82% 0.00in /  0mm 0.0 W/m2
02:31 54.3 °F /  12.4 °C 49.3 °F /  9.6 °C 29.95in /  1014.1hPa NNE 2.9mph /  4.7km/h 11.0mph /  17.7km/h 83% 0.00in /  0mm 0.0 W/m2
02:37 54.1 °F /  12.3 °C 49.1 °F /  9.5 °C 29.95in /  1014.1hPa NNE 2.9mph /  4.7km/h 13.0mph /  20.9km/h 83% 0.00in /  0mm 0.0 W/m2
02:43 54.0 °F /  12.2 °C 49.3 °F /  9.6 °C 29.95in /  1014.1hPa ENE 8.9mph /  14.3km/h 11.0mph /  17.7km/h 84% 0.00in /  0mm 0.0 W/m2
02:50 54.0 °F /  12.2 °C 49.3 °F /  9.6 °C 29.94in /  1013.8hPa ESE 4.0mph /  6.4km/h 8.0mph /  12.9km/h 84% 0.00in /  0mm 0.0 W/m2
02:56 54.0 °F /  12.2 °C 49.6 °F /  9.8 °C 29.94in /  1013.8hPa ENE 0.9mph /  1.4km/h 9.0mph /  14.5km/h 85% 0.00in /  0mm 0.0 W/m2
03:02 54.0 °F /  12.2 °C 49.3 °F /  9.6 °C 29.95in /  1014.1hPa East 4.9mph /  7.9km/h 6.0mph /  9.7km/h 84% 0.00in /  0mm 0.0 W/m2
03:08 53.8 °F /  12.1 °C 49.5 °F /  9.7 °C 29.95in /  1014.1hPa ESE 8.9mph /  14.3km/h 9.0mph /  14.5km/h 85% 0.00in /  0mm 0.0 W/m2
03:14 53.6 °F /  12 °C 48.9 °F /  9.4 °C 29.95in /  1014.1hPa East 6.9mph /  11.1km/h 7.0mph /  11.3km/h 84% 0.00in /  0mm 0.0 W/m2
03:20 53.4 °F /  11.9 °C 49.1 °F /  9.5 °C 29.95in /  1014.1hPa NNE 0.9mph /  1.4km/h 3.0mph /  4.8km/h 85% 0.00in /  0mm 0.0 W/m2
03:26 53.2 °F /  11.8 °C 48.9 °F /  9.4 °C 29.96in /  1014.4hPa NNW 2.0mph /  3.2km/h 3.0mph /  4.8km/h 85% 0.00in /  0mm 0.0 W/m2
03:33 53.1 °F /  11.7 °C 48.7 °F /  9.3 °C 29.96in /  1014.4hPa Calm   1.0mph /  1.6km/h 85% 0.00in /  0mm 0.0 W/m2
03:39 52.9 °F /  11.6 °C 48.7 °F /  9.3 °C 29.96in /  1014.4hPa Calm   3.0mph /  4.8km/h 86% 0.00in /  0mm 0.0 W/m2
03:45 52.5 °F /  11.4 °C 48.4 °F /  9.1 °C 29.96in /  1014.4hPa Calm   4.0mph /  6.4km/h 86% 0.00in /  0mm 0.0 W/m2
03:51 52.2 °F /  11.2 °C 48.4 °F /  9.1 °C 29.96in /  1014.4hPa NNW 0.9mph /  1.4km/h 3.0mph /  4.8km/h 87% 0.00in /  0mm 0.0 W/m2
03:57 52.0 °F /  11.1 °C 48.2 °F /  9 °C 29.96in /  1014.4hPa NE 2.0mph /  3.2km/h 6.0mph /  9.7km/h 87% 0.00in /  0mm 0.0 W/m2
04:03 51.8 °F /  11 °C 48.0 °F /  8.9 °C 29.96in /  1014.4hPa NNE 0.9mph /  1.4km/h 5.0mph /  8km/h 87% 0.00in /  0mm 0.0 W/m2
04:09 51.8 °F /  11 °C 48.0 °F /  8.9 °C 29.96in /  1014.4hPa Calm   7.0mph /  11.3km/h 87% 0.00in /  0mm 0.0 W/m2
04:15 52.0 °F /  11.1 °C 48.6 °F /  9.2 °C 29.96in /  1014.4hPa ENE 4.0mph /  6.4km/h 4.0mph /  6.4km/h 88% 0.00in /  0mm 0.0 W/m2
04:22 52.2 °F /  11.2 °C 48.4 °F /  9.1 °C 29.96in /  1014.4hPa SE 2.9mph /  4.7km/h 6.0mph /  9.7km/h 87% 0.00in /  0mm 0.0 W/m2
04:28 52.3 °F /  11.3 °C 48.6 °F /  9.2 °C 29.96in /  1014.4hPa NE 2.0mph /  3.2km/h 6.0mph /  9.7km/h 87% 0.00in /  0mm 0.0 W/m2
04:34 52.5 °F /  11.4 °C 48.4 °F /  9.1 °C 29.96in /  1014.4hPa NE 0.9mph /  1.4km/h 7.0mph /  11.3km/h 86% 0.00in /  0mm 0.0 W/m2
04:40 52.9 °F /  11.6 °C 48.6 °F /  9.2 °C 29.96in /  1014.4hPa NE 2.0mph /  3.2km/h 7.0mph /  11.3km/h 85% 0.00in /  0mm 0.0 W/m2
04:46 53.1 °F /  11.7 °C 48.4 °F /  9.1 °C 29.96in /  1014.4hPa NNE 6.0mph /  9.7km/h 8.0mph /  12.9km/h 84% 0.00in /  0mm 0.0 W/m2
04:52 53.1 °F /  11.7 °C 48.4 °F /  9.1 °C 29.97in /  1014.8hPa North 2.9mph /  4.7km/h 5.0mph /  8km/h 84% 0.00in /  0mm 0.0 W/m2
04:58 53.1 °F /  11.7 °C 48.4 °F /  9.1 °C 29.98in /  1015.1hPa Calm   2.0mph /  3.2km/h 84% 0.00in /  0mm 0.0 W/m2
05:04 53.1 °F /  11.7 °C 48.4 °F /  9.1 °C 29.98in /  1015.1hPa North 0.9mph /  1.4km/h 4.0mph /  6.4km/h 84% 0.00in /  0mm 0.0 W/m2
05:11 53.1 °F /  11.7 °C 48.4 °F /  9.1 °C 29.98in /  1015.1hPa NNW 0.9mph /  1.4km/h 3.0mph /  4.8km/h 84% 0.00in /  0mm 0.0 W/m2
05:17 53.1 °F /  11.7 °C 48.7 °F /  9.3 °C 29.97in /  1014.8hPa ENE 2.0mph /  3.2km/h 5.0mph /  8km/h 85% 0.00in /  0mm 0.0 W/m2
05:23 52.9 °F /  11.6 °C 48.6 °F /  9.2 °C 29.96in /  1014.4hPa NNE 2.9mph /  4.7km/h 4.0mph /  6.4km/h 85% 0.00in /  0mm 0.0 W/m2
05:31 52.9 °F /  11.6 °C 48.6 °F /  9.2 °C 29.97in /  1014.8hPa Calm   2.0mph /  3.2km/h 85% 0.00in /  0mm 0.0 W/m2
05:47 52.5 °F /  11.4 °C 48.2 °F /  9 °C 29.97in /  1014.8hPa Calm   5.0mph /  8km/h 85% 0.00in /  0mm 0.0 W/m2
05:53 52.5 °F /  11.4 °C 48.2 °F /  9 °C 29.97in /  1014.8hPa North 0.9mph /  1.4km/h 4.0mph /  6.4km/h 85% 0.00in /  0mm 0.0 W/m2
05:59 52.7 °F /  11.5 °C 48.4 °F /  9.1 °C 29.97in /  1014.8hPa East 2.9mph /  4.7km/h 3.0mph /  4.8km/h 85% 0.00in /  0mm 0.0 W/m2
06:05 52.9 °F /  11.6 °C 48.6 °F /  9.2 °C 29.97in /  1014.8hPa NE 2.0mph /  3.2km/h 2.0mph /  3.2km/h 85% 0.00in /  0mm 0.0 W/m2
06:12 52.9 °F /  11.6 °C 48.6 °F /  9.2 °C 29.97in /  1014.8hPa Calm   4.0mph /  6.4km/h 85% 0.00in /  0mm 0.0 W/m2
06:17 52.9 °F /  11.6 °C 48.6 °F /  9.2 °C 29.97in /  1014.8hPa Calm   4.0mph /  6.4km/h 85% 0.00in /  0mm 0.0 W/m2
06:23 52.9 °F /  11.6 °C 48.6 °F /  9.2 °C 29.97in /  1014.8hPa Calm   2.0mph /  3.2km/h 85% 0.00in /  0mm 7.0 W/m2
06:29 52.7 °F /  11.5 °C 48.4 °F /  9.1 °C 29.97in /  1014.8hPa ENE 4.0mph /  6.4km/h 5.0mph /  8km/h 85% 0.00in /  0mm 11.0 W/m2
06:35 52.9 °F /  11.6 °C 48.6 °F /  9.2 °C 29.97in /  1014.8hPa Calm   4.0mph /  6.4km/h 85% 0.00in /  0mm 18.0 W/m2
06:42 52.9 °F /  11.6 °C 48.6 °F /  9.2 °C 29.98in /  1015.1hPa ENE 2.9mph /  4.7km/h 4.0mph /  6.4km/h 85% 0.00in /  0mm 21.0 W/m2
06:48 52.9 °F /  11.6 °C 48.6 °F /  9.2 °C 29.97in /  1014.8hPa Calm   3.0mph /  4.8km/h 85% 0.00in /  0mm 32.0 W/m2
06:53 53.1 °F /  11.7 °C 48.7 °F /  9.3 °C 29.97in /  1014.8hPa Calm   4.0mph /  6.4km/h 85% 0.00in /  0mm 35.0 W/m2
07:02 53.2 °F /  11.8 °C 48.9 °F /  9.4 °C 29.97in /  1014.8hPa NNW 0.9mph /  1.4km/h 1.0mph /  1.6km/h 85% 0.00in /  0mm 47.0 W/m2
07:08 53.2 °F /  11.8 °C 48.9 °F /  9.4 °C 29.97in /  1014.8hPa Calm   1.0mph /  1.6km/h 85% 0.00in /  0mm 60.0 W/m2
07:14 53.4 °F /  11.9 °C 49.1 °F /  9.5 °C 29.97in /  1014.8hPa Calm   2.0mph /  3.2km/h 85% 0.00in /  0mm 67.0 W/m2
07:20 53.8 °F /  12.1 °C 49.5 °F /  9.7 °C 29.98in /  1015.1hPa Calm   2.0mph /  3.2km/h 85% 0.00in /  0mm 132.0 W/m2
07:26 54.1 °F /  12.3 °C 49.8 °F /  9.9 °C 29.98in /  1015.1hPa NE 2.0mph /  3.2km/h 2.0mph /  3.2km/h 85% 0.00in /  0mm 121.0 W/m2
07:32 54.7 °F /  12.6 °C 50.2 °F /  10.1 °C 29.98in /  1015.1hPa Calm     85% 0.00in /  0mm 183.0 W/m2
07:38 55.0 °F /  12.8 °C 50.4 °F /  10.2 °C 29.99in /  1015.5hPa Calm   2.0mph /  3.2km/h 84% 0.00in /  0mm 125.0 W/m2
07:44 55.8 °F /  13.2 °C 50.4 °F /  10.2 °C 29.99in /  1015.5hPa Calm   3.0mph /  4.8km/h 82% 0.00in /  0mm 91.0 W/m2
07:50 56.1 °F /  13.4 °C 50.4 °F /  10.2 °C 30.00in /  1015.8hPa NNE 2.0mph /  3.2km/h 2.0mph /  3.2km/h 81% 0.00in /  0mm 151.0 W/m2
07:56 56.7 °F /  13.7 °C 50.9 °F /  10.5 °C 30.00in /  1015.8hPa North 2.9mph /  4.7km/h 4.0mph /  6.4km/h 81% 0.00in /  0mm 98.0 W/m2
08:02 56.8 °F /  13.8 °C 50.4 °F /  10.2 °C 30.00in /  1015.8hPa Calm   4.0mph /  6.4km/h 79% 0.00in /  0mm 49.0 W/m2
08:08 57.4 °F /  14.1 °C 51.3 °F /  10.7 °C 30.01in /  1016.1hPa NW 2.0mph /  3.2km/h 6.0mph /  9.7km/h 80% 0.00in /  0mm 100.0 W/m2
08:14 57.9 °F /  14.4 °C 50.7 °F /  10.4 °C 30.01in /  1016.1hPa NE 8.1mph /  13km/h 8.1mph /  13km/h 77% 0.00in /  0mm 95.0 W/m2
08:20 58.5 °F /  14.7 °C 50.5 °F /  10.3 °C 30.01in /  1016.1hPa NNW 4.9mph /  7.9km/h 7.0mph /  11.3km/h 75% 0.00in /  0mm 79.0 W/m2
08:26 59.2 °F /  15.1 °C 51.3 °F /  10.7 °C 30.01in /  1016.1hPa North 4.0mph /  6.4km/h 4.0mph /  6.4km/h 75% 0.00in /  0mm 84.0 W/m2
08:39 60.8 °F /  16 °C 50.9 °F /  10.5 °C 30.00in /  1015.8hPa NNW 4.9mph /  7.9km/h 8.0mph /  12.9km/h 70% 0.00in /  0mm 260.0 W/m2
08:45 61.0 °F /  16.1 °C 51.1 °F /  10.6 °C 30.00in /  1015.8hPa NNE 6.9mph /  11.1km/h 12.0mph /  19.3km/h 70% 0.00in /  0mm 105.0 W/m2
08:51 60.4 °F /  15.8 °C 50.2 °F /  10.1 °C 30.01in /  1016.1hPa NNW 6.0mph /  9.7km/h 12.0mph /  19.3km/h 69% 0.00in /  0mm 155.0 W/m2
09:01 60.1 °F /  15.6 °C 50.7 °F /  10.4 °C 30.00in /  1015.8hPa NNE 2.9mph /  4.7km/h 5.0mph /  8km/h 71% 0.00in /  0mm 185.0 W/m2
09:07 60.3 °F /  15.7 °C 50.4 °F /  10.2 °C 29.99in /  1015.5hPa NNE 2.0mph /  3.2km/h 7.0mph /  11.3km/h 70% 0.00in /  0mm 229.0 W/m2
09:12 60.3 °F /  15.7 °C 50.4 °F /  10.2 °C 29.99in /  1015.5hPa NE 4.9mph /  7.9km/h 6.0mph /  9.7km/h 70% 0.00in /  0mm 265.0 W/m2
09:18 61.0 °F /  16.1 °C 51.1 °F /  10.6 °C 29.99in /  1015.5hPa NNW 2.0mph /  3.2km/h 5.0mph /  8km/h 70% 0.00in /  0mm 728.0 W/m2
09:24 62.2 °F /  16.8 °C 51.6 °F /  10.9 °C 30.00in /  1015.8hPa NNW 2.0mph /  3.2km/h 7.0mph /  11.3km/h 68% 0.00in /  0mm 550.0 W/m2
09:42 63.9 °F /  17.7 °C 50.5 °F /  10.3 °C 30.00in /  1015.8hPa NNW 2.0mph /  3.2km/h 13.0mph /  20.9km/h 62% 0.00in /  0mm 323.0 W/m2
09:47 63.3 °F /  17.4 °C 50.0 °F /  10 °C 30.00in /  1015.8hPa NE 8.9mph /  14.3km/h 10.0mph /  16.1km/h 62% 0.00in /  0mm 315.0 W/m2
09:53 63.0 °F /  17.2 °C 50.5 °F /  10.3 °C 29.99in /  1015.5hPa ENE 0.9mph /  1.4km/h 4.0mph /  6.4km/h 64% 0.00in /  0mm 213.0 W/m2
09:59 62.8 °F /  17.1 °C 50.9 °F /  10.5 °C 29.98in /  1015.1hPa ENE 6.9mph /  11.1km/h 8.0mph /  12.9km/h 65% 0.00in /  0mm 251.0 W/m2
10:07 63.3 °F /  17.4 °C 50.9 °F /  10.5 °C 29.98in /  1015.1hPa NE 2.9mph /  4.7km/h 8.0mph /  12.9km/h 64% 0.00in /  0mm 687.0 W/m2
10:13 64.6 °F /  18.1 °C 51.3 °F /  10.7 °C 29.98in /  1015.1hPa NE 0.9mph /  1.4km/h 5.0mph /  8km/h 62% 0.00in /  0mm 680.0 W/m2
10:21 64.9 °F /  18.3 °C 50.7 °F /  10.4 °C 29.99in /  1015.5hPa ENE 2.9mph /  4.7km/h 8.0mph /  12.9km/h 60% 0.00in /  0mm 719.0 W/m2
10:27 65.7 °F /  18.7 °C 51.8 °F /  11 °C 29.98in /  1015.1hPa West 2.0mph /  3.2km/h 4.0mph /  6.4km/h 61% 0.00in /  0mm 854.0 W/m2
10:38 65.8 °F /  18.8 °C 50.7 °F /  10.4 °C 29.97in /  1014.8hPa North 8.1mph /  13km/h 9.0mph /  14.5km/h 58% 0.00in /  0mm 752.0 W/m2
10:45 65.7 °F /  18.7 °C 50.5 °F /  10.3 °C 29.96in /  1014.4hPa North 0.9mph /  1.4km/h 6.0mph /  9.7km/h 58% 0.00in /  0mm 452.0 W/m2
10:51 66.0 °F /  18.9 °C 50.9 °F /  10.5 °C 29.96in /  1014.4hPa North 2.9mph /  4.7km/h 9.0mph /  14.5km/h 58% 0.00in /  0mm 879.0 W/m2
10:58 66.4 °F /  19.1 °C 51.1 °F /  10.6 °C 29.97in /  1014.8hPa NNW 4.9mph /  7.9km/h 6.0mph /  9.7km/h 58% 0.00in /  0mm 863.0 W/m2
11:07 67.5 °F /  19.7 °C 50.2 °F /  10.1 °C 29.97in /  1014.8hPa NNE 2.9mph /  4.7km/h 9.0mph /  14.5km/h 54% 0.00in /  0mm 867.0 W/m2
11:14 67.8 °F /  19.9 °C 50.0 °F /  10 °C 29.97in /  1014.8hPa NNW 4.9mph /  7.9km/h 10.0mph /  16.1km/h 53% 0.00in /  0mm 984.0 W/m2
11:24 68.0 °F /  20 °C 50.2 °F /  10.1 °C 29.97in /  1014.8hPa NNW 6.0mph /  9.7km/h 9.0mph /  14.5km/h 53% 0.00in /  0mm 357.0 W/m2
11:30 67.8 °F /  19.9 °C 50.0 °F /  10 °C 29.96in /  1014.4hPa WNW 0.9mph /  1.4km/h 6.0mph /  9.7km/h 53% 0.00in /  0mm 1134.0 W/m2
11:36 68.2 °F /  20.1 °C 50.4 °F /  10.2 °C 29.96in /  1014.4hPa North 4.0mph /  6.4km/h 8.0mph /  12.9km/h 53% 0.00in /  0mm 241.0 W/m2
11:46 68.2 °F /  20.1 °C 49.8 °F /  9.9 °C 29.95in /  1014.1hPa North 6.9mph /  11.1km/h 8.0mph /  12.9km/h 52% 0.00in /  0mm 1065.0 W/m2
11:52 68.2 °F /  20.1 °C 49.8 °F /  9.9 °C 29.95in /  1014.1hPa North 2.9mph /  4.7km/h 7.0mph /  11.3km/h 52% 0.00in /  0mm 963.0 W/m2
11:58 68.5 °F /  20.3 °C 49.6 °F /  9.8 °C 29.94in /  1013.8hPa North 2.0mph /  3.2km/h 6.0mph /  9.7km/h 51% 0.00in /  0mm 865.0 W/m2
12:13 69.4 °F /  20.8 °C 50.0 °F /  10 °C 29.93in /  1013.4hPa NNW 2.0mph /  3.2km/h 8.0mph /  12.9km/h 50% 0.00in /  0mm 962.0 W/m2
12:20 69.8 °F /  21 °C 49.8 °F /  9.9 °C 29.93in /  1013.4hPa ENE 4.9mph /  7.9km/h 5.0mph /  8km/h 49% 0.00in /  0mm 255.0 W/m2
12:27 69.1 °F /  20.6 °C 49.6 °F /  9.8 °C 29.94in /  1013.8hPa ENE 2.0mph /  3.2km/h 7.0mph /  11.3km/h 50% 0.00in /  0mm 297.0 W/m2
12:43 66.9 °F /  19.4 °C 50.2 °F /  10.1 °C 29.93in /  1013.4hPa ENE 4.9mph /  7.9km/h 9.0mph /  14.5km/h 55% 0.00in /  0mm 462.0 W/m2
12:48 66.9 °F /  19.4 °C 50.2 °F /  10.1 °C 29.93in /  1013.4hPa ESE 8.9mph /  14.3km/h 15.0mph /  24.1km/h 55% 0.00in /  0mm 598.0 W/m2
12:57 67.6 °F /  19.8 °C 49.5 °F /  9.7 °C 29.93in /  1013.4hPa East 8.1mph /  13km/h 8.1mph /  13km/h 52% 0.00in /  0mm 865.0 W/m2
13:12 68.4 °F /  20.2 °C 48.9 °F /  9.4 °C 29.93in /  1013.4hPa North 6.9mph /  11.1km/h 11.0mph /  17.7km/h 50% 0.00in /  0mm 803.0 W/m2
13:24 69.3 °F /  20.7 °C 49.3 °F /  9.6 °C 29.92in /  1013.1hPa ENE 2.0mph /  3.2km/h 7.0mph /  11.3km/h 49% 0.00in /  0mm 817.0 W/m2
13:41 69.3 °F /  20.7 °C 50.4 °F /  10.2 °C 29.91in /  1012.8hPa SE 2.9mph /  4.7km/h 9.0mph /  14.5km/h 51% 0.00in /  0mm 847.0 W/m2
13:46 68.7 °F /  20.4 °C 50.4 °F /  10.2 °C 29.91in /  1012.8hPa SE 4.9mph /  7.9km/h 8.0mph /  12.9km/h 52% 0.00in /  0mm 302.0 W/m2
13:52 68.4 °F /  20.2 °C 50.5 °F /  10.3 °C 29.91in /  1012.8hPa ESE 2.9mph /  4.7km/h 8.0mph /  12.9km/h 53% 0.00in /  0mm 867.0 W/m2
13:58 68.4 °F /  20.2 °C 50.5 °F /  10.3 °C 29.91in /  1012.8hPa ESE 2.0mph /  3.2km/h 10.0mph /  16.1km/h 53% 0.00in /  0mm 297.0 W/m2
14:04 68.4 °F /  20.2 °C 50.0 °F /  10 °C 29.91in /  1012.8hPa NE 4.0mph /  6.4km/h 7.0mph /  11.3km/h 52% 0.00in /  0mm 202.0 W/m2
14:10 68.0 °F /  20 °C 50.2 °F /  10.1 °C 29.91in /  1012.8hPa ESE 4.0mph /  6.4km/h 10.0mph /  16.1km/h 53% 0.00in /  0mm 172.0 W/m2
14:16 67.3 °F /  19.6 °C 50.0 °F /  10 °C 29.92in /  1013.1hPa ESE 2.9mph /  4.7km/h 8.0mph /  12.9km/h 54% 0.00in /  0mm 199.0 W/m2
14:22 66.7 °F /  19.3 °C 49.6 °F /  9.8 °C 29.91in /  1012.8hPa SE 2.0mph /  3.2km/h 9.0mph /  14.5km/h 54% 0.00in /  0mm 183.0 W/m2
14:28 66.4 °F /  19.1 °C 49.6 °F /  9.8 °C 29.92in /  1013.1hPa ESE 2.9mph /  4.7km/h 12.0mph /  19.3km/h 55% 0.00in /  0mm 188.0 W/m2
14:35 65.8 °F /  18.8 °C 49.6 °F /  9.8 °C 29.92in /  1013.1hPa ESE 6.9mph /  11.1km/h 10.0mph /  16.1km/h 56% 0.00in /  0mm 169.0 W/m2
14:40 65.7 °F /  18.7 °C 50.0 °F /  10 °C 29.92in /  1013.1hPa East 4.9mph /  7.9km/h 9.0mph /  14.5km/h 57% 0.00in /  0mm 98.0 W/m2
14:46 65.3 °F /  18.5 °C 49.3 °F /  9.6 °C 29.92in /  1013.1hPa SE 2.9mph /  4.7km/h 15.0mph /  24.1km/h 56% 0.00in /  0mm 185.0 W/m2
14:53 64.9 °F /  18.3 °C 49.3 °F /  9.6 °C 29.92in /  1013.1hPa SE 8.9mph /  14.3km/h 9.0mph /  14.5km/h 57% 0.00in /  0mm 209.0 W/m2
14:59 64.9 °F /  18.3 °C 49.8 °F /  9.9 °C 29.92in /  1013.1hPa ENE 2.9mph /  4.7km/h 4.0mph /  6.4km/h 58% 0.00in /  0mm 127.0 W/m2
15:05 64.8 °F /  18.2 °C 49.6 °F /  9.8 °C 29.93in /  1013.4hPa ENE 4.0mph /  6.4km/h 8.0mph /  12.9km/h 58% 0.00in /  0mm 139.0 W/m2
15:11 64.8 °F /  18.2 °C 49.1 °F /  9.5 °C 29.92in /  1013.1hPa NNE 4.0mph /  6.4km/h 13.0mph /  20.9km/h 57% 0.00in /  0mm 127.0 W/m2
15:17 64.9 °F /  18.3 °C 49.3 °F /  9.6 °C 29.92in /  1013.1hPa NE 4.9mph /  7.9km/h 11.0mph /  17.7km/h 57% 0.00in /  0mm 468.0 W/m2
15:23 65.5 °F /  18.6 °C 49.3 °F /  9.6 °C 29.92in /  1013.1hPa NE 6.0mph /  9.7km/h 10.0mph /  16.1km/h 56% 0.00in /  0mm 51.0 W/m2
15:29 65.5 °F /  18.6 °C 49.3 °F /  9.6 °C 29.92in /  1013.1hPa ENE 6.0mph /  9.7km/h 7.0mph /  11.3km/h 56% 0.00in /  0mm 63.0 W/m2
15:35 65.3 °F /  18.5 °C 49.3 °F /  9.6 °C 29.93in /  1013.4hPa NNE 2.9mph /  4.7km/h 9.0mph /  14.5km/h 56% 0.00in /  0mm 469.0 W/m2
15:41 65.7 °F /  18.7 °C 49.5 °F /  9.7 °C 29.92in /  1013.1hPa SSE 2.9mph /  4.7km/h 7.0mph /  11.3km/h 56% 0.00in /  0mm 315.0 W/m2
15:47 66.0 °F /  18.9 °C 49.8 °F /  9.9 °C 29.92in /  1013.1hPa ENE 4.9mph /  7.9km/h 7.0mph /  11.3km/h 56% 0.00in /  0mm 425.0 W/m2
15:53 66.6 °F /  19.2 °C 49.5 °F /  9.7 °C 29.92in /  1013.1hPa Calm   4.0mph /  6.4km/h 54% 0.00in /  0mm 230.0 W/m2
16:00 66.6 °F /  19.2 °C 49.8 °F /  9.9 °C 29.92in /  1013.1hPa NE 6.9mph /  11.1km/h 7.0mph /  11.3km/h 55% 0.00in /  0mm 62.0 W/m2
16:06 66.0 °F /  18.9 °C 49.5 °F /  9.7 °C 29.92in /  1013.1hPa East 2.9mph /  4.7km/h 10.0mph /  16.1km/h 55% 0.00in /  0mm 47.0 W/m2
16:12 65.7 °F /  18.7 °C 49.5 °F /  9.7 °C 29.92in /  1013.1hPa ENE 4.0mph /  6.4km/h 9.0mph /  14.5km/h 56% 0.00in /  0mm 40.0 W/m2
16:18 65.3 °F /  18.5 °C 50.2 °F /  10.1 °C 29.92in /  1013.1hPa ENE 2.0mph /  3.2km/h 8.0mph /  12.9km/h 58% 0.00in /  0mm 35.0 W/m2
16:24 64.9 °F /  18.3 °C 49.8 °F /  9.9 °C 29.92in /  1013.1hPa NE 2.9mph /  4.7km/h 6.0mph /  9.7km/h 58% 0.00in /  0mm 33.0 W/m2
16:30 64.6 °F /  18.1 °C 49.5 °F /  9.7 °C 29.92in /  1013.1hPa NNE 0.9mph /  1.4km/h 7.0mph /  11.3km/h 58% 0.00in /  0mm 28.0 W/m2
16:36 64.0 °F /  17.8 °C 49.5 °F /  9.7 °C 29.92in /  1013.1hPa NNE 0.9mph /  1.4km/h 11.0mph /  17.7km/h 59% 0.00in /  0mm 25.0 W/m2
16:42 63.7 °F /  17.6 °C 49.5 °F /  9.7 °C 29.92in /  1013.1hPa NNE 4.9mph /  7.9km/h 9.0mph /  14.5km/h 60% 0.00in /  0mm 23.0 W/m2
16:48 63.3 °F /  17.4 °C 49.6 °F /  9.8 °C 29.92in /  1013.1hPa NE 4.0mph /  6.4km/h 7.0mph /  11.3km/h 61% 0.00in /  0mm 23.0 W/m2
16:54 63.0 °F /  17.2 °C 49.3 °F /  9.6 °C 29.92in /  1013.1hPa ENE 0.9mph /  1.4km/h 6.0mph /  9.7km/h 61% 0.00in /  0mm 21.0 W/m2
17:00 62.8 °F /  17.1 °C 49.1 °F /  9.5 °C 29.92in /  1013.1hPa East 2.0mph /  3.2km/h 7.0mph /  11.3km/h 61% 0.00in /  0mm 18.0 W/m2
17:06 62.4 °F /  16.9 °C 49.3 °F /  9.6 °C 29.92in /  1013.1hPa Calm   9.0mph /  14.5km/h 62% 0.00in /  0mm 16.0 W/m2
17:12 62.1 °F /  16.7 °C 48.9 °F /  9.4 °C 29.92in /  1013.1hPa ESE 2.9mph /  4.7km/h 6.0mph /  9.7km/h 62% 0.00in /  0mm 12.0 W/m2
17:18 61.9 °F /  16.6 °C 49.1 °F /  9.5 °C 29.92in /  1013.1hPa NE 0.9mph /  1.4km/h 8.0mph /  12.9km/h 63% 0.00in /  0mm 11.0 W/m2
17:25 61.5 °F /  16.4 °C 48.7 °F /  9.3 °C 29.93in /  1013.4hPa ESE 2.9mph /  4.7km/h 5.0mph /  8km/h 63% 0.00in /  0mm 7.0 W/m2
17:31 61.2 °F /  16.2 °C 48.9 °F /  9.4 °C 29.93in /  1013.4hPa NNE 2.9mph /  4.7km/h 5.0mph /  8km/h 64% 0.00in /  0mm 0.0 W/m2
17:37 61.0 °F /  16.1 °C 49.1 °F /  9.5 °C 29.93in /  1013.4hPa ENE 4.9mph /  7.9km/h 5.0mph /  8km/h 65% 0.00in /  0mm 0.0 W/m2
17:43 60.4 °F /  15.8 °C 49.1 °F /  9.5 °C 29.93in /  1013.4hPa SSE 0.9mph /  1.4km/h 5.0mph /  8km/h 66% 0.00in /  0mm 0.0 W/m2
17:49 60.1 °F /  15.6 °C 48.7 °F /  9.3 °C 29.93in /  1013.4hPa ENE 0.9mph /  1.4km/h 3.0mph /  4.8km/h 66% 0.00in /  0mm 0.0 W/m2
17:55 59.7 °F /  15.4 °C 49.1 °F /  9.5 °C 29.93in /  1013.4hPa Calm   7.0mph /  11.3km/h 68% 0.00in /  0mm 0.0 W/m2
18:01 59.4 °F /  15.2 °C 48.7 °F /  9.3 °C 29.94in /  1013.8hPa ENE 2.9mph /  4.7km/h 5.0mph /  8km/h 68% 0.00in /  0mm 0.0 W/m2
18:07 59.2 °F /  15.1 °C 49.1 °F /  9.5 °C 29.94in /  1013.8hPa Calm   4.0mph /  6.4km/h 69% 0.00in /  0mm 0.0 W/m2
18:14 58.6 °F /  14.8 °C 48.9 °F /  9.4 °C 29.94in /  1013.8hPa East 2.9mph /  4.7km/h 3.0mph /  4.8km/h 70% 0.00in /  0mm 0.0 W/m2
18:22 58.3 °F /  14.6 °C 48.9 °F /  9.4 °C 29.94in /  1013.8hPa Calm   5.0mph /  8km/h 71% 0.00in /  0mm 0.0 W/m2
18:28 57.9 °F /  14.4 °C 48.9 °F /  9.4 °C 29.95in /  1014.1hPa NE 0.9mph /  1.4km/h 6.0mph /  9.7km/h 72% 0.00in /  0mm 0.0 W/m2
18:34 57.7 °F /  14.3 °C 49.1 °F /  9.5 °C 29.95in /  1014.1hPa Calm   4.0mph /  6.4km/h 73% 0.00in /  0mm 0.0 W/m2
18:40 57.6 °F /  14.2 °C 48.9 °F /  9.4 °C 29.95in /  1014.1hPa ENE 6.0mph /  9.7km/h 6.0mph /  9.7km/h 73% 0.00in /  0mm 0.0 W/m2
18:46 57.4 °F /  14.1 °C 48.7 °F /  9.3 °C 29.95in /  1014.1hPa ENE 0.9mph /  1.4km/h 3.0mph /  4.8km/h 73% 0.00in /  0mm 0.0 W/m2
18:52 57.0 °F /  13.9 °C 48.4 °F /  9.1 °C 29.95in /  1014.1hPa SSE 4.0mph /  6.4km/h 5.0mph /  8km/h 73% 0.00in /  0mm 0.0 W/m2
18:58 56.8 °F /  13.8 °C 48.6 °F /  9.2 °C 29.95in /  1014.1hPa ESE 0.9mph /  1.4km/h 4.0mph /  6.4km/h 74% 0.00in /  0mm 0.0 W/m2
19:04 56.7 °F /  13.7 °C 48.4 °F /  9.1 °C 29.96in /  1014.4hPa ENE 2.0mph /  3.2km/h 6.0mph /  9.7km/h 74% 0.00in /  0mm 0.0 W/m2
19:10 56.5 °F /  13.6 °C 48.4 °F /  9.1 °C 29.96in /  1014.4hPa East 4.0mph /  6.4km/h 5.0mph /  8km/h 74% 0.00in /  0mm 0.0 W/m2
19:16 56.5 °F /  13.6 °C 48.4 °F /  9.1 °C 29.96in /  1014.4hPa Calm   7.0mph /  11.3km/h 74% 0.00in /  0mm 0.0 W/m2
19:23 56.3 °F /  13.5 °C 48.2 °F /  9 °C 29.97in /  1014.8hPa NNE 2.9mph /  4.7km/h 5.0mph /  8km/h 74% 0.00in /  0mm 0.0 W/m2
19:29 56.1 °F /  13.4 °C 47.7 °F /  8.7 °C 29.97in /  1014.8hPa South 0.9mph /  1.4km/h 8.0mph /  12.9km/h 73% 0.00in /  0mm 0.0 W/m2
19:35 56.1 °F /  13.4 °C 47.7 °F /  8.7 °C 29.97in /  1014.8hPa ESE 0.9mph /  1.4km/h 10.0mph /  16.1km/h 73% 0.00in /  0mm 0.0 W/m2
19:41 55.9 °F /  13.3 °C 47.5 °F /  8.6 °C 29.98in /  1015.1hPa Calm   6.0mph /  9.7km/h 73% 0.00in /  0mm 0.0 W/m2
19:47 55.8 °F /  13.2 °C 46.9 °F /  8.3 °C 29.98in /  1015.1hPa NNE 4.0mph /  6.4km/h 10.0mph /  16.1km/h 72% 0.00in /  0mm 0.0 W/m2
19:53 55.8 °F /  13.2 °C 46.9 °F /  8.3 °C 29.98in /  1015.1hPa ESE 2.9mph /  4.7km/h 4.0mph /  6.4km/h 72% 0.00in /  0mm 0.0 W/m2
19:59 55.6 °F /  13.1 °C 46.8 °F /  8.2 °C 29.99in /  1015.5hPa NNE 0.9mph /  1.4km/h 6.0mph /  9.7km/h 72% 0.00in /  0mm 0.0 W/m2
20:05 55.6 °F /  13.1 °C 46.8 °F /  8.2 °C 29.99in /  1015.5hPa Calm   4.0mph /  6.4km/h 72% 0.00in /  0mm 0.0 W/m2
20:11 55.4 °F /  13 °C 46.9 °F /  8.3 °C 29.99in /  1015.5hPa ESE 4.0mph /  6.4km/h 5.0mph /  8km/h 73% 0.00in /  0mm 0.0 W/m2
20:17 55.0 °F /  12.8 °C 46.6 °F /  8.1 °C 29.99in /  1015.5hPa NNE 4.0mph /  6.4km/h 5.0mph /  8km/h 73% 0.00in /  0mm 0.0 W/m2
20:23 54.9 °F /  12.7 °C 46.8 °F /  8.2 °C 30.00in /  1015.8hPa ENE 4.9mph /  7.9km/h 7.0mph /  11.3km/h 74% 0.00in /  0mm 0.0 W/m2
20:29 54.9 °F /  12.7 °C 46.8 °F /  8.2 °C 30.00in /  1015.8hPa NNE 0.9mph /  1.4km/h 5.0mph /  8km/h 74% 0.00in /  0mm 0.0 W/m2
20:35 54.7 °F /  12.6 °C 46.9 °F /  8.3 °C 30.01in /  1016.1hPa NNE 2.0mph /  3.2km/h 6.0mph /  9.7km/h 75% 0.00in /  0mm 0.0 W/m2
20:41 54.3 °F /  12.4 °C 46.9 °F /  8.3 °C 30.00in /  1015.8hPa NE 4.0mph /  6.4km/h 5.0mph /  8km/h 76% 0.00in /  0mm 0.0 W/m2
20:47 54.1 °F /  12.3 °C 46.8 °F /  8.2 °C 30.00in /  1015.8hPa NE 2.0mph /  3.2km/h 5.0mph /  8km/h 76% 0.00in /  0mm 0.0 W/m2
20:53 54.0 °F /  12.2 °C 46.6 °F /  8.1 °C 30.00in /  1015.8hPa NE 0.9mph /  1.4km/h 5.0mph /  8km/h 76% 0.00in /  0mm 0.0 W/m2
21:00 53.8 °F /  12.1 °C 46.8 °F /  8.2 °C 30.01in /  1016.1hPa NNE 2.0mph /  3.2km/h 4.0mph /  6.4km/h 77% 0.00in /  0mm 0.0 W/m2
21:06 53.8 °F /  12.1 °C 46.8 °F /  8.2 °C 30.01in /  1016.1hPa East 0.9mph /  1.4km/h 5.0mph /  8km/h 77% 0.00in /  0mm 0.0 W/m2
21:12 53.8 °F /  12.1 °C 46.4 °F /  8 °C 30.01in /  1016.1hPa NNE 2.9mph /  4.7km/h 3.0mph /  4.8km/h 76% 0.00in /  0mm 0.0 W/m2
21:18 53.8 °F /  12.1 °C 46.8 °F /  8.2 °C 30.01in /  1016.1hPa NNE 2.0mph /  3.2km/h 6.0mph /  9.7km/h 77% 0.00in /  0mm 0.0 W/m2
21:24 53.8 °F /  12.1 °C 46.8 °F /  8.2 °C 30.01in /  1016.1hPa NE 4.0mph /  6.4km/h 7.0mph /  11.3km/h 77% 0.00in /  0mm 0.0 W/m2
21:30 53.6 °F /  12 °C 46.6 °F /  8.1 °C 30.01in /  1016.1hPa NE 6.9mph /  11.1km/h 9.0mph /  14.5km/h 77% 0.00in /  0mm 0.0 W/m2
21:36 53.4 °F /  11.9 °C 46.4 °F /  8 °C 30.01in /  1016.1hPa NNE 2.9mph /  4.7km/h 7.0mph /  11.3km/h 77% 0.00in /  0mm 0.0 W/m2
21:42 53.4 °F /  11.9 °C 46.8 °F /  8.2 °C 30.01in /  1016.1hPa ENE 2.0mph /  3.2km/h 3.0mph /  4.8km/h 78% 0.00in /  0mm 0.0 W/m2
21:48 53.2 °F /  11.8 °C 46.6 °F /  8.1 °C 30.01in /  1016.1hPa NE 0.9mph /  1.4km/h 3.0mph /  4.8km/h 78% 0.00in /  0mm 0.0 W/m2
21:54 53.1 °F /  11.7 °C 46.8 °F /  8.2 °C 30.01in /  1016.1hPa Calm   3.0mph /  4.8km/h 79% 0.00in /  0mm 0.0 W/m2
22:00 52.9 °F /  11.6 °C 46.6 °F /  8.1 °C 30.01in /  1016.1hPa Calm   4.0mph /  6.4km/h 79% 0.00in /  0mm 0.0 W/m2
22:07 52.9 °F /  11.6 °C 46.6 °F /  8.1 °C 30.01in /  1016.1hPa Calm   2.0mph /  3.2km/h 79% 0.00in /  0mm 0.0 W/m2
22:13 52.5 °F /  11.4 °C 46.2 °F /  7.9 °C 30.01in /  1016.1hPa Calm   1.0mph /  1.6km/h 79% 0.00in /  0mm 0.0 W/m2
22:19 52.3 °F /  11.3 °C 46.4 °F /  8 °C 30.01in /  1016.1hPa Calm     80% 0.00in /  0mm 0.0 W/m2
22:25 52.2 °F /  11.2 °C 46.2 °F /  7.9 °C 30.01in /  1016.1hPa Calm   2.0mph /  3.2km/h 80% 0.00in /  0mm 0.0 W/m2
22:31 52.2 °F /  11.2 °C 46.6 °F /  8.1 °C 30.01in /  1016.1hPa ESE 0.9mph /  1.4km/h 3.0mph /  4.8km/h 81% 0.00in /  0mm 0.0 W/m2
22:37 52.0 °F /  11.1 °C 46.4 °F /  8 °C 30.01in /  1016.1hPa Calm   2.0mph /  3.2km/h 81% 0.00in /  0mm 0.0 W/m2
22:43 52.0 °F /  11.1 °C 46.4 °F /  8 °C 30.01in /  1016.1hPa East 0.9mph /  1.4km/h 1.0mph /  1.6km/h 81% 0.00in /  0mm 0.0 W/m2
22:50 52.0 °F /  11.1 °C 46.4 °F /  8 °C 30.01in /  1016.1hPa Calm   2.0mph /  3.2km/h 81% 0.00in /  0mm 0.0 W/m2
22:56 51.8 °F /  11 °C 46.4 °F /  8 °C 30.00in /  1015.8hPa Calm     82% 0.00in /  0mm 0.0 W/m2
23:02 51.6 °F /  10.9 °C 46.2 °F /  7.9 °C 30.00in /  1015.8hPa Calm     82% 0.00in /  0mm 0.0 W/m2
23:08 51.4 °F /  10.8 °C 46.2 °F /  7.9 °C 30.00in /  1015.8hPa Calm     82% 0.00in /  0mm 0.0 W/m2
23:14 51.3 °F /  10.7 °C 46.0 °F /  7.8 °C 30.00in /  1015.8hPa Calm     82% 0.00in /  0mm 0.0 W/m2
23:20 51.3 °F /  10.7 °C 46.2 °F /  7.9 °C 30.00in /  1015.8hPa Calm     83% 0.00in /  0mm 0.0 W/m2
23:26 50.9 °F /  10.5 °C 45.9 °F /  7.7 °C 30.00in /  1015.8hPa Calm     83% 0.00in /  0mm 0.0 W/m2
23:32 50.7 °F /  10.4 °C 46.0 °F /  7.8 °C 30.00in /  1015.8hPa Calm     84% 0.00in /  0mm 0.0 W/m2
23:38 50.5 °F /  10.3 °C 46.2 °F /  7.9 °C 30.00in /  1015.8hPa Calm   2.0mph /  3.2km/h 85% 0.00in /  0mm 0.0 W/m2
23:44 50.5 °F /  10.3 °C 46.2 °F /  7.9 °C 30.00in /  1015.8hPa Calm   1.0mph /  1.6km/h 85% 0.00in /  0mm 0.0 W/m2
23:51 50.5 °F /  10.3 °C 45.9 °F /  7.7 °C 30.00in /  1015.8hPa Calm   1.0mph /  1.6km/h 84% 0.00in /  0mm 0.0 W/m2
23:57 50.7 °F /  10.4 °C 46.0 °F /  7.8 °C 29.99in /  1015.5hPa Calm   6.0mph /  9.7km/h 84% 0.00in /  0mm 0.0 W/m2
Olympia, Windhoek, Namibia
Compliments of Weather Underground - 3 mb